sensor_id;sensor_type;location;lat;lon;timestamp;P1;durP1;ratioP1;P2;durP2;ratioP2
11255;SDS011;5685;52.384;13.420;2022-12-07T00:01:49;26.70;;;25.00;;
11255;SDS011;5685;52.384;13.420;2022-12-07T00:04:51;26.57;;;24.87;;
11255;SDS011;5685;52.384;13.420;2022-12-07T00:07:54;26.53;;;24.87;;
11255;SDS011;5685;52.384;13.420;2022-12-07T00:11:01;26.90;;;25.10;;
11255;SDS011;5685;52.384;13.420;2022-12-07T00:14:05;26.40;;;24.60;;
11255;SDS011;5685;52.384;13.420;2022-12-07T00:17:11;27.20;;;25.40;;
11255;SDS011;5685;52.384;13.420;2022-12-07T00:20:13;27.37;;;25.67;;
11255;SDS011;5685;52.384;13.420;2022-12-07T00:23:16;26.63;;;24.73;;
11255;SDS011;5685;52.384;13.420;2022-12-07T00:26:20;27.20;;;25.50;;
11255;SDS011;5685;52.384;13.420;2022-12-07T00:29:24;27.47;;;25.67;;
11255;SDS011;5685;52.384;13.420;2022-12-07T00:32:27;26.30;;;24.63;;
11255;SDS011;5685;52.384;13.420;2022-12-07T00:35:29;26.00;;;24.37;;
11255;SDS011;5685;52.384;13.420;2022-12-07T00:38:32;26.67;;;24.97;;
11255;SDS011;5685;52.384;13.420;2022-12-07T00:41:37;26.30;;;24.70;;
11255;SDS011;5685;52.384;13.420;2022-12-07T00:44:40;26.53;;;24.83;;
11255;SDS011;5685;52.384;13.420;2022-12-07T00:47:43;26.53;;;24.70;;
11255;SDS011;5685;52.384;13.420;2022-12-07T00:50:45;25.73;;;24.13;;
11255;SDS011;5685;52.384;13.420;2022-12-07T00:53:48;26.00;;;24.40;;
11255;SDS011;5685;52.384;13.420;2022-12-07T00:56:52;26.17;;;24.57;;
11255;SDS011;5685;52.384;13.420;2022-12-07T00:59:55;26.30;;;24.70;;
11255;SDS011;5685;52.384;13.420;2022-12-07T01:02:59;25.77;;;24.17;;
11255;SDS011;5685;52.384;13.420;2022-12-07T01:06:02;26.47;;;24.77;;
11255;SDS011;5685;52.384;13.420;2022-12-07T01:09:05;26.23;;;24.63;;
11255;SDS011;5685;52.384;13.420;2022-12-07T01:12:09;26.00;;;24.30;;
11255;SDS011;5685;52.384;13.420;2022-12-07T01:15:12;26.13;;;24.53;;
11255;SDS011;5685;52.384;13.420;2022-12-07T01:18:14;25.67;;;24.07;;
11255;SDS011;5685;52.384;13.420;2022-12-07T01:21:18;26.10;;;24.50;;
11255;SDS011;5685;52.384;13.420;2022-12-07T01:24:21;26.50;;;24.80;;
11255;SDS011;5685;52.384;13.420;2022-12-07T01:27:26;26.10;;;24.50;;
11255;SDS011;5685;52.384;13.420;2022-12-07T01:30:28;26.03;;;24.43;;
11255;SDS011;5685;52.384;13.420;2022-12-07T01:33:31;26.13;;;24.53;;
11255;SDS011;5685;52.384;13.420;2022-12-07T01:36:35;25.80;;;24.17;;
11255;SDS011;5685;52.384;13.420;2022-12-07T01:39:38;26.17;;;24.47;;
11255;SDS011;5685;52.384;13.420;2022-12-07T01:42:42;25.77;;;24.20;;
11255;SDS011;5685;52.384;13.420;2022-12-07T01:45:45;26.00;;;24.40;;
11255;SDS011;5685;52.384;13.420;2022-12-07T01:48:48;26.20;;;24.60;;
11255;SDS011;5685;52.384;13.420;2022-12-07T01:51:51;26.10;;;24.50;;
11255;SDS011;5685;52.384;13.420;2022-12-07T01:54:57;25.93;;;24.30;;
11255;SDS011;5685;52.384;13.420;2022-12-07T01:58:04;26.10;;;24.50;;
11255;SDS011;5685;52.384;13.420;2022-12-07T02:01:06;26.13;;;24.43;;
11255;SDS011;5685;52.384;13.420;2022-12-07T02:04:09;26.07;;;24.47;;
11255;SDS011;5685;52.384;13.420;2022-12-07T02:07:12;25.63;;;24.13;;
11255;SDS011;5685;52.384;13.420;2022-12-07T02:10:16;25.47;;;23.97;;
11255;SDS011;5685;52.384;13.420;2022-12-07T02:13:21;25.73;;;24.13;;
11255;SDS011;5685;52.384;13.420;2022-12-07T02:16:27;26.07;;;24.37;;
11255;SDS011;5685;52.384;13.420;2022-12-07T02:30:10;25.93;;;24.33;;
11255;SDS011;5685;52.384;13.420;2022-12-07T02:33:16;26.17;;;24.57;;
11255;SDS011;5685;52.384;13.420;2022-12-07T02:36:21;25.70;;;24.10;;
11255;SDS011;5685;52.384;13.420;2022-12-07T02:39:28;25.83;;;24.23;;
11255;SDS011;5685;52.384;13.420;2022-12-07T02:42:35;25.70;;;24.10;;
11255;SDS011;5685;52.384;13.420;2022-12-07T02:45:41;25.73;;;24.13;;
11255;SDS011;5685;52.384;13.420;2022-12-07T02:48:44;26.43;;;24.53;;
11255;SDS011;5685;52.384;13.420;2022-12-07T02:51:48;26.10;;;24.50;;
11255;SDS011;5685;52.384;13.420;2022-12-07T02:54:50;25.47;;;23.97;;
11255;SDS011;5685;52.384;13.420;2022-12-07T02:58:08;25.97;;;24.37;;
11255;SDS011;5685;52.384;13.420;2022-12-07T03:01:22;25.43;;;23.93;;
11255;SDS011;5685;52.384;13.420;2022-12-07T03:04:32;25.80;;;24.20;;
11255;SDS011;5685;52.384;13.420;2022-12-07T03:07:39;26.33;;;24.73;;
11255;SDS011;5685;52.384;13.420;2022-12-07T03:10:51;26.20;;;24.60;;
11255;SDS011;5685;52.384;13.420;2022-12-07T03:13:59;25.80;;;24.20;;
11255;SDS011;5685;52.384;13.420;2022-12-07T03:17:07;26.03;;;24.43;;
11255;SDS011;5685;52.384;13.420;2022-12-07T03:20:12;26.10;;;24.47;;
11255;SDS011;5685;52.384;13.420;2022-12-07T03:23:17;25.93;;;24.33;;
11255;SDS011;5685;52.384;13.420;2022-12-07T03:26:21;25.90;;;24.30;;
11255;SDS011;5685;52.384;13.420;2022-12-07T03:29:26;25.80;;;24.20;;
11255;SDS011;5685;52.384;13.420;2022-12-07T03:32:35;26.03;;;24.43;;
11255;SDS011;5685;52.384;13.420;2022-12-07T03:35:40;26.00;;;24.40;;
11255;SDS011;5685;52.384;13.420;2022-12-07T03:38:45;25.87;;;24.27;;
11255;SDS011;5685;52.384;13.420;2022-12-07T03:41:49;25.60;;;24.00;;
11255;SDS011;5685;52.384;13.420;2022-12-07T03:44:52;25.67;;;24.07;;
11255;SDS011;5685;52.384;13.420;2022-12-07T03:47:59;25.53;;;24.03;;
11255;SDS011;5685;52.384;13.420;2022-12-07T03:51:13;26.27;;;24.57;;
11255;SDS011;5685;52.384;13.420;2022-12-07T03:54:21;26.33;;;24.70;;
11255;SDS011;5685;52.384;13.420;2022-12-07T03:57:26;26.17;;;24.57;;
11255;SDS011;5685;52.384;13.420;2022-12-07T04:00:30;26.50;;;24.83;;
11255;SDS011;5685;52.384;13.420;2022-12-07T04:03:34;26.30;;;24.60;;
11255;SDS011;5685;52.384;13.420;2022-12-07T04:06:37;25.93;;;24.33;;
11255;SDS011;5685;52.384;13.420;2022-12-07T04:09:39;26.43;;;24.83;;
11255;SDS011;5685;52.384;13.420;2022-12-07T04:12:42;27.07;;;25.27;;
11255;SDS011;5685;52.384;13.420;2022-12-07T04:15:45;26.90;;;25.20;;
11255;SDS011;5685;52.384;13.420;2022-12-07T04:18:49;26.47;;;24.77;;
11255;SDS011;5685;52.384;13.420;2022-12-07T04:21:51;26.17;;;24.50;;
11255;SDS011;5685;52.384;13.420;2022-12-07T04:24:54;26.60;;;24.90;;
11255;SDS011;5685;52.384;13.420;2022-12-07T04:27:57;26.53;;;24.83;;
11255;SDS011;5685;52.384;13.420;2022-12-07T04:30:59;26.67;;;24.97;;
11255;SDS011;5685;52.384;13.420;2022-12-07T04:34:04;26.87;;;25.17;;
11255;SDS011;5685;52.384;13.420;2022-12-07T04:37:07;26.33;;;24.63;;
11255;SDS011;5685;52.384;13.420;2022-12-07T04:40:10;27.40;;;25.60;;
11255;SDS011;5685;52.384;13.420;2022-12-07T04:43:14;27.07;;;25.30;;
11255;SDS011;5685;52.384;13.420;2022-12-07T04:46:17;26.53;;;24.83;;
11255;SDS011;5685;52.384;13.420;2022-12-07T04:49:21;26.93;;;25.13;;
11255;SDS011;5685;52.384;13.420;2022-12-07T04:52:23;26.47;;;24.77;;
11255;SDS011;5685;52.384;13.420;2022-12-07T04:55:26;27.33;;;25.53;;
11255;SDS011;5685;52.384;13.420;2022-12-07T04:58:29;26.87;;;25.17;;
11255;SDS011;5685;52.384;13.420;2022-12-07T05:01:31;27.50;;;25.70;;
11255;SDS011;5685;52.384;13.420;2022-12-07T05:04:36;26.77;;;25.07;;
11255;SDS011;5685;52.384;13.420;2022-12-07T05:07:39;27.07;;;25.27;;
11255;SDS011;5685;52.384;13.420;2022-12-07T05:10:41;27.17;;;25.37;;
11255;SDS011;5685;52.384;13.420;2022-12-07T05:13:44;27.33;;;25.53;;
11255;SDS011;5685;52.384;13.420;2022-12-07T05:16:47;27.47;;;25.63;;
11255;SDS011;5685;52.384;13.420;2022-12-07T05:19:52;27.67;;;25.87;;
11255;SDS011;5685;52.384;13.420;2022-12-07T05:22:55;27.17;;;25.37;;
11255;SDS011;5685;52.384;13.420;2022-12-07T05:25:58;27.33;;;25.53;;
11255;SDS011;5685;52.384;13.420;2022-12-07T05:29:01;27.10;;;25.30;;
11255;SDS011;5685;52.384;13.420;2022-12-07T05:32:04;27.03;;;25.23;;
11255;SDS011;5685;52.384;13.420;2022-12-07T05:35:08;27.40;;;25.60;;
11255;SDS011;5685;52.384;13.420;2022-12-07T05:38:11;27.20;;;25.40;;
11255;SDS011;5685;52.384;13.420;2022-12-07T05:41:14;27.67;;;25.83;;
11255;SDS011;5685;52.384;13.420;2022-12-07T05:44:34;27.40;;;25.60;;
11255;SDS011;5685;52.384;13.420;2022-12-07T05:47:37;27.33;;;25.53;;
11255;SDS011;5685;52.384;13.420;2022-12-07T05:50:41;27.73;;;25.87;;
11255;SDS011;5685;52.384;13.420;2022-12-07T05:53:44;28.03;;;26.13;;
11255;SDS011;5685;52.384;13.420;2022-12-07T05:56:47;27.47;;;25.67;;
11255;SDS011;5685;52.384;13.420;2022-12-07T05:59:49;27.27;;;25.47;;
11255;SDS011;5685;52.384;13.420;2022-12-07T06:02:52;27.33;;;25.53;;
11255;SDS011;5685;52.384;13.420;2022-12-07T06:05:56;28.13;;;26.23;;
11255;SDS011;5685;52.384;13.420;2022-12-07T06:08:59;28.10;;;26.10;;
11255;SDS011;5685;52.384;13.420;2022-12-07T06:12:02;27.40;;;25.60;;
11255;SDS011;5685;52.384;13.420;2022-12-07T06:15:22;27.73;;;25.87;;
11255;SDS011;5685;52.384;13.420;2022-12-07T06:18:25;27.67;;;25.77;;
11255;SDS011;5685;52.384;13.420;2022-12-07T06:21:29;26.93;;;25.23;;
11255;SDS011;5685;52.384;13.420;2022-12-07T06:24:32;27.33;;;25.53;;
11255;SDS011;5685;52.384;13.420;2022-12-07T06:27:35;27.27;;;25.47;;
11255;SDS011;5685;52.384;13.420;2022-12-07T06:30:38;27.53;;;25.73;;
11255;SDS011;5685;52.384;13.420;2022-12-07T06:33:40;27.23;;;25.43;;
11255;SDS011;5685;52.384;13.420;2022-12-07T06:36:45;27.63;;;25.73;;
11255;SDS011;5685;52.384;13.420;2022-12-07T06:39:51;28.13;;;26.17;;
11255;SDS011;5685;52.384;13.420;2022-12-07T06:42:54;27.50;;;25.60;;
11255;SDS011;5685;52.384;13.420;2022-12-07T06:45:56;27.93;;;26.03;;
11255;SDS011;5685;52.384;13.420;2022-12-07T06:48:59;27.83;;;25.90;;
11255;SDS011;5685;52.384;13.420;2022-12-07T06:52:04;27.33;;;25.47;;
11255;SDS011;5685;52.384;13.420;2022-12-07T06:55:06;27.53;;;25.70;;
11255;SDS011;5685;52.384;13.420;2022-12-07T06:58:09;28.03;;;26.13;;
11255;SDS011;5685;52.384;13.420;2022-12-07T07:01:12;27.03;;;25.23;;
11255;SDS011;5685;52.384;13.420;2022-12-07T07:04:16;27.83;;;25.93;;
11255;SDS011;5685;52.384;13.420;2022-12-07T07:07:21;26.80;;;25.00;;
11255;SDS011;5685;52.384;13.420;2022-12-07T07:10:23;27.43;;;25.53;;
11255;SDS011;5685;52.384;13.420;2022-12-07T07:13:26;26.73;;;24.83;;
11255;SDS011;5685;52.384;13.420;2022-12-07T07:16:29;28.10;;;26.13;;
11255;SDS011;5685;52.384;13.420;2022-12-07T07:19:31;27.60;;;25.80;;
11255;SDS011;5685;52.384;13.420;2022-12-07T07:22:35;27.93;;;25.90;;
11255;SDS011;5685;52.384;13.420;2022-12-07T07:25:38;27.97;;;26.10;;
11255;SDS011;5685;52.384;13.420;2022-12-07T07:28:41;27.70;;;25.80;;
11255;SDS011;5685;52.384;13.420;2022-12-07T07:31:43;27.90;;;26.00;;
11255;SDS011;5685;52.384;13.420;2022-12-07T07:34:46;27.70;;;25.87;;
11255;SDS011;5685;52.384;13.420;2022-12-07T07:37:50;28.33;;;26.33;;
11255;SDS011;5685;52.384;13.420;2022-12-07T07:40:53;27.40;;;25.60;;
11255;SDS011;5685;52.384;13.420;2022-12-07T07:43:56;27.37;;;25.57;;
11255;SDS011;5685;52.384;13.420;2022-12-07T07:46:59;27.53;;;25.63;;
11255;SDS011;5685;52.384;13.420;2022-12-07T07:50:02;28.27;;;26.27;;
11255;SDS011;5685;52.384;13.420;2022-12-07T07:53:07;27.93;;;26.03;;
11255;SDS011;5685;52.384;13.420;2022-12-07T07:56:10;28.03;;;26.03;;
11255;SDS011;5685;52.384;13.420;2022-12-07T07:59:12;27.47;;;25.60;;
11255;SDS011;5685;52.384;13.420;2022-12-07T08:02:17;27.87;;;26.03;;
11255;SDS011;5685;52.384;13.420;2022-12-07T08:05:20;27.70;;;25.80;;
11255;SDS011;5685;52.384;13.420;2022-12-07T08:08:24;27.83;;;25.93;;
11255;SDS011;5685;52.384;13.420;2022-12-07T08:11:27;27.67;;;25.77;;
11255;SDS011;5685;52.384;13.420;2022-12-07T08:14:29;27.13;;;25.33;;
11255;SDS011;5685;52.384;13.420;2022-12-07T08:17:32;27.03;;;25.23;;
11255;SDS011;5685;52.384;13.420;2022-12-07T08:20:35;27.07;;;25.27;;
11255;SDS011;5685;52.384;13.420;2022-12-07T08:23:40;27.83;;;26.00;;
11255;SDS011;5685;52.384;13.420;2022-12-07T08:26:43;27.67;;;25.67;;
11255;SDS011;5685;52.384;13.420;2022-12-07T08:29:46;26.90;;;25.13;;
11255;SDS011;5685;52.384;13.420;2022-12-07T08:32:49;27.30;;;25.40;;
11255;SDS011;5685;52.384;13.420;2022-12-07T08:35:51;27.00;;;25.20;;
11255;SDS011;5685;52.384;13.420;2022-12-07T08:38:55;26.37;;;24.67;;
11255;SDS011;5685;52.384;13.420;2022-12-07T08:41:58;26.27;;;24.67;;
11255;SDS011;5685;52.384;13.420;2022-12-07T08:45:01;26.60;;;24.90;;
11255;SDS011;5685;52.384;13.420;2022-12-07T08:48:06;26.40;;;24.63;;
11255;SDS011;5685;52.384;13.420;2022-12-07T08:51:11;26.43;;;24.73;;
11255;SDS011;5685;52.384;13.420;2022-12-07T08:54:16;25.80;;;24.20;;
11255;SDS011;5685;52.384;13.420;2022-12-07T08:57:19;25.60;;;24.00;;
11255;SDS011;5685;52.384;13.420;2022-12-07T09:00:22;26.23;;;24.57;;
11255;SDS011;5685;52.384;13.420;2022-12-07T09:03:25;26.07;;;24.40;;
11255;SDS011;5685;52.384;13.420;2022-12-07T09:06:28;25.83;;;24.13;;
11255;SDS011;5685;52.384;13.420;2022-12-07T09:09:32;25.87;;;24.27;;
11255;SDS011;5685;52.384;13.420;2022-12-07T09:12:35;25.80;;;24.17;;
11255;SDS011;5685;52.384;13.420;2022-12-07T09:15:38;25.37;;;23.83;;
11255;SDS011;5685;52.384;13.420;2022-12-07T09:18:40;25.60;;;23.90;;
11255;SDS011;5685;52.384;13.420;2022-12-07T09:21:43;25.60;;;23.93;;
11255;SDS011;5685;52.384;13.420;2022-12-07T09:24:47;25.80;;;24.23;;
11255;SDS011;5685;52.384;13.420;2022-12-07T09:27:54;25.53;;;23.93;;
11255;SDS011;5685;52.384;13.420;2022-12-07T09:30:57;25.33;;;23.73;;
11255;SDS011;5685;52.384;13.420;2022-12-07T09:34:00;24.97;;;23.47;;
11255;SDS011;5685;52.384;13.420;2022-12-07T09:37:04;25.23;;;23.67;;
11255;SDS011;5685;52.384;13.420;2022-12-07T09:40:09;25.23;;;23.73;;
11255;SDS011;5685;52.384;13.420;2022-12-07T09:43:12;25.10;;;23.50;;
11255;SDS011;5685;52.384;13.420;2022-12-07T09:46:17;25.17;;;23.67;;
11255;SDS011;5685;52.384;13.420;2022-12-07T09:49:22;25.27;;;23.77;;
11255;SDS011;5685;52.384;13.420;2022-12-07T09:52:27;25.20;;;23.70;;
11255;SDS011;5685;52.384;13.420;2022-12-07T09:55:33;25.07;;;23.57;;
11255;SDS011;5685;52.384;13.420;2022-12-07T09:58:36;25.00;;;23.50;;
11255;SDS011;5685;52.384;13.420;2022-12-07T10:01:38;25.20;;;23.60;;
11255;SDS011;5685;52.384;13.420;2022-12-07T10:04:41;25.10;;;23.60;;
11255;SDS011;5685;52.384;13.420;2022-12-07T10:07:45;25.10;;;23.60;;
11255;SDS011;5685;52.384;13.420;2022-12-07T10:10:50;25.27;;;23.57;;
11255;SDS011;5685;52.384;13.420;2022-12-07T10:13:55;25.10;;;23.60;;
11255;SDS011;5685;52.384;13.420;2022-12-07T10:17:30;25.30;;;23.80;;
11255;SDS011;5685;52.384;13.420;2022-12-07T10:20:35;25.07;;;23.57;;
11255;SDS011;5685;52.384;13.420;2022-12-07T10:23:38;25.47;;;23.97;;
11255;SDS011;5685;52.384;13.420;2022-12-07T10:26:46;24.90;;;23.40;;
11255;SDS011;5685;52.384;13.420;2022-12-07T10:29:52;25.13;;;23.63;;
11255;SDS011;5685;52.384;13.420;2022-12-07T10:32:54;25.13;;;23.63;;
11255;SDS011;5685;52.384;13.420;2022-12-07T10:35:57;25.10;;;23.60;;
11255;SDS011;5685;52.384;13.420;2022-12-07T10:39:01;25.43;;;23.93;;
11255;SDS011;5685;52.384;13.420;2022-12-07T10:42:09;25.43;;;23.63;;
11255;SDS011;5685;52.384;13.420;2022-12-07T10:45:18;25.37;;;23.83;;
11255;SDS011;5685;52.384;13.420;2022-12-07T10:48:22;25.23;;;23.63;;
11255;SDS011;5685;52.384;13.420;2022-12-07T10:51:30;25.03;;;23.53;;
11255;SDS011;5685;52.384;13.420;2022-12-07T10:54:39;25.60;;;24.00;;
11255;SDS011;5685;52.384;13.420;2022-12-07T10:57:50;25.47;;;23.67;;
11255;SDS011;5685;52.384;13.420;2022-12-07T11:00:59;25.67;;;24.17;;
11255;SDS011;5685;52.384;13.420;2022-12-07T11:04:10;25.00;;;23.50;;
11255;SDS011;5685;52.384;13.420;2022-12-07T11:07:18;25.20;;;23.70;;
11255;SDS011;5685;52.384;13.420;2022-12-07T11:10:29;24.70;;;23.20;;
11255;SDS011;5685;52.384;13.420;2022-12-07T11:13:43;25.63;;;23.93;;
11255;SDS011;5685;52.384;13.420;2022-12-07T11:16:53;25.80;;;24.20;;
11255;SDS011;5685;52.384;13.420;2022-12-07T11:20:01;25.60;;;23.90;;
11255;SDS011;5685;52.384;13.420;2022-12-07T11:23:10;25.23;;;23.73;;
11255;SDS011;5685;52.384;13.420;2022-12-07T11:26:20;25.27;;;23.77;;
11255;SDS011;5685;52.384;13.420;2022-12-07T11:29:33;25.37;;;23.87;;
11255;SDS011;5685;52.384;13.420;2022-12-07T11:32:51;25.40;;;23.80;;
11255;SDS011;5685;52.384;13.420;2022-12-07T11:36:02;25.30;;;23.80;;
11255;SDS011;5685;52.384;13.420;2022-12-07T11:39:12;25.50;;;23.90;;
11255;SDS011;5685;52.384;13.420;2022-12-07T11:42:22;25.40;;;23.90;;
11255;SDS011;5685;52.384;13.420;2022-12-07T11:45:29;25.70;;;24.03;;
11255;SDS011;5685;52.384;13.420;2022-12-07T11:48:35;25.30;;;23.80;;
11255;SDS011;5685;52.384;13.420;2022-12-07T11:51:41;25.20;;;23.70;;
11255;SDS011;5685;52.384;13.420;2022-12-07T11:54:45;25.03;;;23.53;;
11255;SDS011;5685;52.384;13.420;2022-12-07T11:57:50;24.90;;;23.40;;
11255;SDS011;5685;52.384;13.420;2022-12-07T12:01:01;25.43;;;23.83;;
11255;SDS011;5685;52.384;13.420;2022-12-07T12:04:17;25.30;;;23.80;;
11255;SDS011;5685;52.384;13.420;2022-12-07T12:07:31;25.03;;;23.53;;
11255;SDS011;5685;52.384;13.420;2022-12-07T12:10:37;25.40;;;23.90;;
11255;SDS011;5685;52.384;13.420;2022-12-07T12:13:56;25.70;;;23.53;;
11255;SDS011;5685;52.384;13.420;2022-12-07T12:17:25;25.33;;;23.70;;
11255;SDS011;5685;52.384;13.420;2022-12-07T12:20:40;25.23;;;23.57;;
11255;SDS011;5685;52.384;13.420;2022-12-07T12:23:45;25.03;;;23.53;;
11255;SDS011;5685;52.384;13.420;2022-12-07T12:26:50;25.10;;;23.60;;
11255;SDS011;5685;52.384;13.420;2022-12-07T12:29:55;25.03;;;23.53;;
11255;SDS011;5685;52.384;13.420;2022-12-07T12:33:04;25.10;;;23.60;;
11255;SDS011;5685;52.384;13.420;2022-12-07T12:40:01;25.07;;;23.57;;
11255;SDS011;5685;52.384;13.420;2022-12-07T12:43:45;24.93;;;23.43;;
11255;SDS011;5685;52.384;13.420;2022-12-07T12:46:52;25.00;;;23.50;;
11255;SDS011;5685;52.384;13.420;2022-12-07T12:50:15;24.97;;;23.47;;
11255;SDS011;5685;52.384;13.420;2022-12-07T12:53:21;25.40;;;23.80;;
11255;SDS011;5685;52.384;13.420;2022-12-07T12:56:32;25.10;;;23.50;;
11255;SDS011;5685;52.384;13.420;2022-12-07T12:59:39;25.27;;;23.67;;
11255;SDS011;5685;52.384;13.420;2022-12-07T13:02:47;25.00;;;23.50;;
11255;SDS011;5685;52.384;13.420;2022-12-07T13:09:33;25.40;;;23.80;;
11255;SDS011;5685;52.384;13.420;2022-12-07T13:12:36;25.90;;;24.10;;
11255;SDS011;5685;52.384;13.420;2022-12-07T13:15:39;25.40;;;23.87;;
11255;SDS011;5685;52.384;13.420;2022-12-07T13:18:43;25.03;;;23.43;;
11255;SDS011;5685;52.384;13.420;2022-12-07T13:21:47;25.33;;;23.73;;
11255;SDS011;5685;52.384;13.420;2022-12-07T13:24:53;25.40;;;23.90;;
11255;SDS011;5685;52.384;13.420;2022-12-07T13:27:58;25.30;;;23.70;;
11255;SDS011;5685;52.384;13.420;2022-12-07T13:31:14;25.63;;;23.87;;
11255;SDS011;5685;52.384;13.420;2022-12-07T13:34:28;25.10;;;23.60;;
11255;SDS011;5685;52.384;13.420;2022-12-07T13:37:34;25.47;;;23.97;;
11255;SDS011;5685;52.384;13.420;2022-12-07T13:40:37;25.40;;;23.87;;
11255;SDS011;5685;52.384;13.420;2022-12-07T13:43:43;25.10;;;23.60;;
11255;SDS011;5685;52.384;13.420;2022-12-07T13:46:52;25.30;;;23.80;;
11255;SDS011;5685;52.384;13.420;2022-12-07T13:49:59;25.43;;;23.83;;
11255;SDS011;5685;52.384;13.420;2022-12-07T13:53:07;25.60;;;23.90;;
11255;SDS011;5685;52.384;13.420;2022-12-07T13:56:15;24.97;;;23.47;;
11255;SDS011;5685;52.384;13.420;2022-12-07T13:59:18;25.70;;;24.10;;
11255;SDS011;5685;52.384;13.420;2022-12-07T14:02:24;25.20;;;23.67;;
11255;SDS011;5685;52.384;13.420;2022-12-07T14:05:28;25.23;;;23.73;;
11255;SDS011;5685;52.384;13.420;2022-12-07T14:08:33;25.30;;;23.80;;
11255;SDS011;5685;52.384;13.420;2022-12-07T14:11:36;25.20;;;23.63;;
11255;SDS011;5685;52.384;13.420;2022-12-07T14:14:40;25.00;;;23.50;;
11255;SDS011;5685;52.384;13.420;2022-12-07T14:17:49;25.17;;;23.50;;
11255;SDS011;5685;52.384;13.420;2022-12-07T14:21:02;25.63;;;24.03;;
11255;SDS011;5685;52.384;13.420;2022-12-07T14:24:11;25.53;;;23.90;;
11255;SDS011;5685;52.384;13.420;2022-12-07T14:27:18;25.47;;;23.77;;
11255;SDS011;5685;52.384;13.420;2022-12-07T14:30:22;25.50;;;23.90;;
11255;SDS011;5685;52.384;13.420;2022-12-07T14:33:26;25.33;;;23.73;;
11255;SDS011;5685;52.384;13.420;2022-12-07T14:36:29;25.37;;;23.67;;
11255;SDS011;5685;52.384;13.420;2022-12-07T14:39:33;26.30;;;24.50;;
11255;SDS011;5685;52.384;13.420;2022-12-07T14:42:35;25.87;;;24.27;;
11255;SDS011;5685;52.384;13.420;2022-12-07T14:45:38;25.13;;;23.63;;
11255;SDS011;5685;52.384;13.420;2022-12-07T14:48:41;25.30;;;23.73;;
11255;SDS011;5685;52.384;13.420;2022-12-07T14:51:44;25.33;;;23.83;;
11255;SDS011;5685;52.384;13.420;2022-12-07T14:54:49;26.20;;;24.17;;
11255;SDS011;5685;52.384;13.420;2022-12-07T14:57:52;25.00;;;23.50;;
11255;SDS011;5685;52.384;13.420;2022-12-07T15:00:54;25.33;;;23.73;;
11255;SDS011;5685;52.384;13.420;2022-12-07T15:03:57;26.57;;;24.63;;
11255;SDS011;5685;52.384;13.420;2022-12-07T15:07:01;25.17;;;23.67;;
11255;SDS011;5685;52.384;13.420;2022-12-07T15:10:09;25.33;;;23.83;;
11255;SDS011;5685;52.384;13.420;2022-12-07T15:13:16;25.73;;;24.13;;
11255;SDS011;5685;52.384;13.420;2022-12-07T15:16:44;25.33;;;23.73;;
11255;SDS011;5685;52.384;13.420;2022-12-07T15:19:47;25.50;;;23.70;;
11255;SDS011;5685;52.384;13.420;2022-12-07T15:22:49;25.87;;;24.17;;
11255;SDS011;5685;52.384;13.420;2022-12-07T15:25:53;25.67;;;23.93;;
11255;SDS011;5685;52.384;13.420;2022-12-07T15:28:56;25.73;;;24.13;;
11255;SDS011;5685;52.384;13.420;2022-12-07T15:31:59;25.90;;;24.10;;
11255;SDS011;5685;52.384;13.420;2022-12-07T15:35:02;25.90;;;24.00;;
11255;SDS011;5685;52.384;13.420;2022-12-07T15:38:05;25.97;;;24.33;;
11255;SDS011;5685;52.384;13.420;2022-12-07T15:41:09;25.07;;;23.53;;
11255;SDS011;5685;52.384;13.420;2022-12-07T15:44:12;26.17;;;24.57;;
11255;SDS011;5685;52.384;13.420;2022-12-07T15:47:33;25.30;;;23.70;;
11255;SDS011;5685;52.384;13.420;2022-12-07T15:50:37;25.53;;;23.93;;
11255;SDS011;5685;52.384;13.420;2022-12-07T15:53:40;25.33;;;23.73;;
11255;SDS011;5685;52.384;13.420;2022-12-07T15:56:44;25.20;;;23.70;;
11255;SDS011;5685;52.384;13.420;2022-12-07T15:59:46;25.03;;;23.53;;
11255;SDS011;5685;52.384;13.420;2022-12-07T16:02:49;25.47;;;23.77;;
11255;SDS011;5685;52.384;13.420;2022-12-07T16:05:52;25.30;;;23.70;;
11255;SDS011;5685;52.384;13.420;2022-12-07T16:08:54;25.50;;;23.90;;
11255;SDS011;5685;52.384;13.420;2022-12-07T16:11:58;24.90;;;23.40;;
11255;SDS011;5685;52.384;13.420;2022-12-07T16:15:01;24.97;;;23.47;;
11255;SDS011;5685;52.384;13.420;2022-12-07T16:18:04;25.50;;;23.87;;
11255;SDS011;5685;52.384;13.420;2022-12-07T16:21:06;25.07;;;23.47;;
11255;SDS011;5685;52.384;13.420;2022-12-07T16:24:09;25.50;;;23.90;;
11255;SDS011;5685;52.384;13.420;2022-12-07T16:27:14;25.27;;;23.60;;
11255;SDS011;5685;52.384;13.420;2022-12-07T16:30:17;25.07;;;23.57;;
11255;SDS011;5685;52.384;13.420;2022-12-07T16:33:20;25.10;;;23.60;;
11255;SDS011;5685;52.384;13.420;2022-12-07T16:36:23;25.33;;;23.50;;
11255;SDS011;5685;52.384;13.420;2022-12-07T16:39:27;25.37;;;23.87;;
11255;SDS011;5685;52.384;13.420;2022-12-07T16:42:32;25.87;;;23.70;;
11255;SDS011;5685;52.384;13.420;2022-12-07T16:45:36;25.33;;;23.73;;
11255;SDS011;5685;52.384;13.420;2022-12-07T16:48:39;25.70;;;24.00;;
11255;SDS011;5685;52.384;13.420;2022-12-07T16:51:42;25.37;;;23.60;;
11255;SDS011;5685;52.384;13.420;2022-12-07T16:54:46;25.50;;;23.53;;
11255;SDS011;5685;52.384;13.420;2022-12-07T16:57:50;25.33;;;23.73;;
11255;SDS011;5685;52.384;13.420;2022-12-07T17:00:53;24.97;;;23.47;;
11255;SDS011;5685;52.384;13.420;2022-12-07T17:03:56;24.80;;;23.30;;
11255;SDS011;5685;52.384;13.420;2022-12-07T17:06:59;25.60;;;24.00;;
11255;SDS011;5685;52.384;13.420;2022-12-07T17:10:01;25.70;;;24.10;;
11255;SDS011;5685;52.384;13.420;2022-12-07T17:13:06;25.53;;;23.93;;
11255;SDS011;5685;52.384;13.420;2022-12-07T17:16:23;26.20;;;24.40;;
11255;SDS011;5685;52.384;13.420;2022-12-07T17:19:26;26.20;;;24.50;;
11255;SDS011;5685;52.384;13.420;2022-12-07T17:22:29;25.47;;;23.87;;
11255;SDS011;5685;52.384;13.420;2022-12-07T17:25:31;25.43;;;23.80;;
11255;SDS011;5685;52.384;13.420;2022-12-07T17:28:36;25.23;;;23.70;;
11255;SDS011;5685;52.384;13.420;2022-12-07T17:31:39;25.57;;;24.00;;
11255;SDS011;5685;52.384;13.420;2022-12-07T17:34:41;25.20;;;23.60;;
11255;SDS011;5685;52.384;13.420;2022-12-07T17:37:44;25.33;;;23.83;;
11255;SDS011;5685;52.384;13.420;2022-12-07T17:40:47;25.20;;;23.70;;
11255;SDS011;5685;52.384;13.420;2022-12-07T17:43:51;25.90;;;24.20;;
11255;SDS011;5685;52.384;13.420;2022-12-07T17:46:53;25.20;;;23.60;;
11255;SDS011;5685;52.384;13.420;2022-12-07T17:49:58;25.40;;;23.80;;
11255;SDS011;5685;52.384;13.420;2022-12-07T17:53:00;25.23;;;23.73;;
11255;SDS011;5685;52.384;13.420;2022-12-07T17:56:11;25.33;;;23.73;;
11255;SDS011;5685;52.384;13.420;2022-12-07T17:59:15;25.83;;;24.23;;
11255;SDS011;5685;52.384;13.420;2022-12-07T18:02:18;25.53;;;23.93;;
11255;SDS011;5685;52.384;13.420;2022-12-07T18:05:21;25.63;;;24.03;;
11255;SDS011;5685;52.384;13.420;2022-12-07T18:08:24;25.53;;;23.93;;
11255;SDS011;5685;52.384;13.420;2022-12-07T18:11:26;25.97;;;24.23;;
11255;SDS011;5685;52.384;13.420;2022-12-07T18:14:30;30.50;;;27.80;;
11255;SDS011;5685;52.384;13.420;2022-12-07T18:17:33;35.40;;;29.67;;
11255;SDS011;5685;52.384;13.420;2022-12-07T18:20:36;31.50;;;28.37;;